Time;durP1;ratioP1;P1;durP2;ratioP2;P2;SDS_P1;SDS_P2;PMS_P1;PMS_P2;Temp;Humidity;BMP_temperature;BMP_pressure;BME280_temperature;BME280_humidity;BME280_pressure;Samples;Min_cycle;Max_cycle;Signal;HPM_P1;HPM_P2
2021/09/16 00:01:39;;;;;;;7.70;1.50;;;15.60;99.90;;;;;;5093194;28;20040;-70
2021/09/16 00:04:05;;;;;;;4.45;0.80;;;15.60;99.90;;;;;;5093118;28;20051;-70
2021/09/16 00:06:32;;;;;;;9.07;1.13;;;15.60;99.90;;;;;;5094831;28;20154;-70
2021/09/16 00:08:57;;;;;;;6.15;1.08;;;15.60;99.90;;;;;;5093980;28;20039;-70
2021/09/16 00:11:23;;;;;;;6.18;1.80;;;15.60;99.90;;;;;;5092899;28;20123;-70
2021/09/16 00:13:49;;;;;;;7.28;0.93;;;15.60;99.90;;;;;;5094327;28;20104;-69
2021/09/16 00:16:14;;;;;;;3.25;0.90;;;15.60;99.90;;;;;;5075851;28;20556;-70
2021/09/16 00:18:43;;;;;;;5.75;1.17;;;15.60;99.90;;;;;;5093750;28;20054;-70
2021/09/16 00:21:09;;;;;;;3.90;0.90;;;15.60;99.90;;;;;;5093858;28;20519;-70
2021/09/16 00:23:34;;;;;;;3.47;0.63;;;15.60;99.90;;;;;;5094047;28;20044;-70
2021/09/16 00:26:00;;;;;;;3.70;1.25;;;15.50;99.90;;;;;;5093120;28;20050;-70
2021/09/16 00:28:25;;;;;;;4.72;1.05;;;15.50;99.90;;;;;;5092735;28;20562;-70
2021/09/16 00:30:51;;;;;;;4.30;0.75;;;15.40;99.90;;;;;;5093060;28;20058;-70
2021/09/16 00:33:17;;;;;;;3.42;1.00;;;15.40;99.90;;;;;;5092780;28;20039;-70
2021/09/16 00:35:45;;;;;;;1.95;0.65;;;15.40;99.90;;;;;;5093962;28;20032;-70
2021/09/16 00:38:11;;;;;;;6.68;0.75;;;15.30;99.90;;;;;;5092644;28;20052;-70
2021/09/16 00:40:37;;;;;;;5.55;1.02;;;15.30;99.90;;;;;;5093250;28;20047;-70
2021/09/16 00:43:03;;;;;;;6.00;0.90;;;15.30;99.90;;;;;;5092550;28;20093;-70
2021/09/16 00:45:29;;;;;;;4.30;1.05;;;15.30;99.90;;;;;;5093838;28;20032;-70
2021/09/16 00:47:54;;;;;;;4.45;0.90;;;15.30;99.90;;;;;;5093722;28;20039;-70
2021/09/16 00:50:22;;;;;;;6.00;0.90;;;15.20;99.90;;;;;;5093366;28;20032;-70
2021/09/16 00:52:49;;;;;;;4.47;0.80;;;15.20;99.90;;;;;;5093803;28;20047;-70
2021/09/16 00:55:16;;;;;;;4.60;0.88;;;15.20;99.90;;;;;;5093347;28;20036;-70
2021/09/16 00:57:48;;;;;;;4.90;0.82;;;15.20;99.90;;;;;;5093560;28;20074;-70
2021/09/16 01:00:15;;;;;;;3.50;1.17;;;15.10;99.90;;;;;;5093588;28;20039;-70
2021/09/16 01:02:40;;;;;;;2.17;0.65;;;15.10;99.90;;;;;;5092263;28;20055;-70
2021/09/16 01:05:06;;;;;;;6.55;1.15;;;15.10;99.90;;;;;;5092227;28;20118;-70
2021/09/16 01:07:32;;;;;;;3.72;0.80;;;15.10;99.90;;;;;;5092067;28;20122;-70
2021/09/16 01:09:59;;;;;;;3.17;1.45;;;15.10;99.90;;;;;;5093087;28;20039;-70
2021/09/16 01:12:26;;;;;;;3.85;0.90;;;15.10;99.90;;;;;;5091989;28;20054;-70
2021/09/16 01:14:51;;;;;;;3.28;0.80;;;15.20;99.90;;;;;;5093399;28;20070;-70
2021/09/16 01:17:17;;;;;;;6.97;1.45;;;15.10;99.90;;;;;;5092282;28;20040;-70
2021/09/16 01:19:43;;;;;;;2.58;0.80;;;15.10;99.90;;;;;;5092973;28;20040;-70
2021/09/16 01:22:17;;;;;;;4.82;1.20;;;15.10;99.90;;;;;;5091822;28;20088;-70
2021/09/16 01:24:43;;;;;;;4.43;1.13;;;15.10;99.90;;;;;;5093378;28;20032;-70
2021/09/16 01:27:09;;;;;;;5.82;1.00;;;15.10;99.90;;;;;;5093353;28;20115;-70
2021/09/16 01:29:34;;;;;;;5.68;1.45;;;15.10;99.90;;;;;;5093184;28;20055;-70
2021/09/16 01:32:06;;;;;;;5.55;1.15;;;15.10;99.90;;;;;;5092081;28;20048;-70
2021/09/16 01:34:32;;;;;;;6.63;1.58;;;15.10;99.90;;;;;;5092039;28;20055;-70
2021/09/16 01:36:58;;;;;;;5.75;2.05;;;15.10;99.90;;;;;;5093047;28;20132;-70
2021/09/16 01:39:25;;;;;;;5.57;1.27;;;15.10;99.90;;;;;;5092963;28;20431;-70
2021/09/16 01:41:51;;;;;;;3.67;1.27;;;15.10;99.90;;;;;;5093227;28;20036;-70
2021/09/16 01:44:17;;;;;;;3.78;1.27;;;15.20;99.90;;;;;;5096324;28;20448;-70
2021/09/16 01:46:43;;;;;;;7.65;1.40;;;15.20;99.90;;;;;;5097316;28;20157;-70
2021/09/16 01:49:09;;;;;;;4.78;1.00;;;15.20;99.90;;;;;;5097292;28;20132;-70
2021/09/16 01:51:36;;;;;;;6.47;1.30;;;15.20;99.90;;;;;;5096975;28;20076;-70
2021/09/16 01:54:02;;;;;;;8.57;1.83;;;15.20;99.90;;;;;;5097226;28;20093;-70
2021/09/16 01:56:28;;;;;;;5.90;1.30;;;15.20;99.90;;;;;;5097215;28;20119;-70
2021/09/16 01:58:54;;;;;;;4.40;1.42;;;15.20;99.90;;;;;;5096681;28;20079;-70
2021/09/16 02:01:20;;;;;;;6.95;1.25;;;15.20;99.90;;;;;;5096679;28;20547;-70
2021/09/16 02:03:46;;;;;;;4.60;1.27;;;15.20;99.90;;;;;;5097065;28;20079;-70
2021/09/16 02:06:12;;;;;;;6.40;1.50;;;15.30;99.90;;;;;;5095831;28;20047;-70
2021/09/16 02:08:38;;;;;;;5.63;1.67;;;15.30;99.90;;;;;;5095335;28;20284;-70
2021/09/16 02:11:03;;;;;;;7.90;1.75;;;15.30;99.90;;;;;;5095114;28;20555;-70
2021/09/16 02:13:29;;;;;;;8.63;1.70;;;15.30;99.90;;;;;;5095537;28;20094;-70
2021/09/16 02:15:55;;;;;;;5.78;1.63;;;15.30;99.90;;;;;;5096729;28;20413;-70
2021/09/16 02:18:21;;;;;;;4.90;1.52;;;15.30;99.90;;;;;;5095151;28;20040;-70
2021/09/16 02:20:46;;;;;;;8.32;2.00;;;15.30;99.90;;;;;;5095989;28;20035;-70
2021/09/16 02:23:12;;;;;;;6.22;1.75;;;15.30;99.90;;;;;;5096347;28;20488;-70
2021/09/16 02:25:38;;;;;;;5.43;1.75;;;15.30;99.90;;;;;;5096221;28;20404;-70
2021/09/16 02:28:03;;;;;;;7.53;1.90;;;15.30;99.90;;;;;;5096422;28;20028;-70
2021/09/16 02:30:29;;;;;;;8.02;2.35;;;15.30;99.90;;;;;;5094714;28;20064;-70
2021/09/16 02:32:55;;;;;;;7.40;1.75;;;15.30;99.90;;;;;;5094871;28;20520;-70
2021/09/16 02:35:21;;;;;;;6.80;1.58;;;15.30;99.90;;;;;;5095984;28;20036;-71
2021/09/16 02:37:46;;;;;;;6.88;1.65;;;15.30;99.90;;;;;;5096849;28;20043;-70
2021/09/16 02:40:12;;;;;;;8.73;2.13;;;15.30;99.90;;;;;;5095945;28;20476;-71
2021/09/16 02:42:38;;;;;;;7.07;2.45;;;15.20;99.90;;;;;;5094826;28;20140;-70
2021/09/16 02:45:06;;;;;;;7.00;2.72;;;15.30;99.90;;;;;;5094829;28;20043;-71
2021/09/16 02:47:31;;;;;;;6.47;2.58;;;15.30;99.90;;;;;;5096461;28;20044;-70
2021/09/16 02:50:00;;;;;;;7.50;2.22;;;15.30;99.90;;;;;;5095460;28;20047;-70
2021/09/16 02:52:25;;;;;;;7.03;2.30;;;15.30;99.90;;;;;;5095568;28;20500;-71
2021/09/16 02:54:51;;;;;;;9.15;2.80;;;15.20;99.90;;;;;;5094408;28;20096;-71
2021/09/16 02:57:16;;;;;;;6.22;2.10;;;15.30;99.90;;;;;;5096055;28;20040;-71
2021/09/16 02:59:42;;;;;;;8.98;2.70;;;15.30;99.90;;;;;;5095435;28;20039;-70
2021/09/16 03:02:08;;;;;;;8.88;2.47;;;15.30;99.90;;;;;;5095585;28;20032;-70
2021/09/16 03:04:33;;;;;;;6.13;2.17;;;15.30;99.90;;;;;;5095712;28;20420;-71
2021/09/16 03:07:02;;;;;;;7.10;2.50;;;15.30;99.90;;;;;;5095446;28;20063;-71
2021/09/16 03:09:28;;;;;;;8.63;2.58;;;15.30;99.90;;;;;;5093967;28;20477;-70
2021/09/16 03:11:53;;;;;;;7.60;2.53;;;15.30;99.90;;;;;;5094141;28;20043;-70
2021/09/16 03:14:19;;;;;;;6.43;2.75;;;15.30;99.90;;;;;;5095822;28;20399;-71
2021/09/16 03:16:45;;;;;;;10.18;3.03;;;15.30;99.90;;;;;;5095288;28;20132;-70
2021/09/16 03:19:10;;;;;;;7.60;2.88;;;15.30;99.90;;;;;;5094964;28;20412;-70
2021/09/16 03:21:36;;;;;;;7.18;3.78;;;15.30;99.90;;;;;;5095121;28;20085;-71
2021/09/16 03:24:04;;;;;;;8.07;2.95;;;15.30;99.90;;;;;;5095335;28;20042;-71
2021/09/16 03:26:30;;;;;;;7.38;3.20;;;15.30;99.90;;;;;;5094627;28;20040;-70
2021/09/16 03:28:55;;;;;;;6.28;2.65;;;15.30;99.90;;;;;;5093852;28;20048;-69
2021/09/16 03:31:21;;;;;;;5.45;3.15;;;15.30;99.90;;;;;;5094872;28;20040;-71
2021/09/16 03:33:46;;;;;;;7.93;3.50;;;15.30;99.90;;;;;;5094071;28;20131;-71
2021/09/16 03:36:15;;;;;;;14.05;4.22;;;15.30;99.90;;;;;;5093687;28;20040;-71
2021/09/16 03:38:40;;;;;;;6.28;3.15;;;15.30;99.90;;;;;;5094469;28;20519;-70
2021/09/16 03:41:06;;;;;;;7.55;3.63;;;15.30;99.90;;;;;;5094927;28;20071;-70
2021/09/16 03:43:32;;;;;;;8.93;3.78;;;15.30;99.90;;;;;;5093453;28;20072;-70
2021/09/16 03:45:57;;;;;;;7.78;3.30;;;15.30;99.90;;;;;;5094292;28;20040;-71
2021/09/16 03:48:23;;;;;;;7.35;3.70;;;15.30;99.90;;;;;;5091972;28;20556;-70
2021/09/16 03:50:49;;;;;;;4.65;3.35;;;15.30;99.90;;;;;;5074339;28;20033;-70
2021/09/16 03:53:15;;;;;;;7.55;3.33;;;15.40;99.90;;;;;;5074506;28;20036;-70
2021/09/16 03:55:41;;;;;;;7.30;3.63;;;15.30;99.90;;;;;;5074835;28;20037;-70
2021/09/16 03:58:06;;;;;;;10.05;3.63;;;15.40;99.90;;;;;;5074248;28;20047;-70
2021/09/16 04:00:32;;;;;;;6.72;3.35;;;15.40;99.90;;;;;;5073935;28;20044;-70
2021/09/16 04:03:08;;;;;;;11.90;4.47;;;15.40;99.90;;;;;;5074107;28;20028;-70
2021/09/16 04:05:34;;;;;;;11.45;3.70;;;15.40;99.90;;;;;;5073679;28;20396;-70
2021/09/16 04:07:59;;;;;;;10.40;3.67;;;15.40;99.90;;;;;;5072913;28;20044;-70
2021/09/16 04:10:25;;;;;;;15.43;4.88;;;15.40;99.90;;;;;;5072334;28;20054;-70
2021/09/16 04:12:51;;;;;;;8.68;3.78;;;15.40;99.90;;;;;;5074507;28;20040;-70
2021/09/16 04:15:16;;;;;;;8.43;3.72;;;15.40;99.90;;;;;;5073960;28;20033;-70
2021/09/16 04:17:42;;;;;;;7.30;3.38;;;15.40;99.90;;;;;;5074153;28;20041;-70
2021/09/16 04:20:11;;;;;;;8.93;3.90;;;15.40;99.90;;;;;;5073379;28;20042;-71
2021/09/16 04:22:36;;;;;;;9.98;4.20;;;15.40;99.90;;;;;;5073644;28;20499;-70
2021/09/16 04:25:03;;;;;;;6.60;4.18;;;15.40;99.90;;;;;;5073918;28;20119;-70
2021/09/16 04:27:29;;;;;;;7.18;3.90;;;15.40;99.90;;;;;;5073647;28;20036;-70
2021/09/16 04:29:54;;;;;;;8.23;3.90;;;15.40;99.90;;;;;;5072067;28;20044;-70
2021/09/16 04:32:20;;;;;;;7.63;4.28;;;15.40;99.90;;;;;;5073583;28;20051;-70
2021/09/16 04:34:45;;;;;;;10.63;4.07;;;15.40;99.90;;;;;;5073496;28;20039;-70
2021/09/16 04:37:11;;;;;;;8.95;4.63;;;15.40;99.90;;;;;;5073691;28;20086;-70
2021/09/16 04:39:36;;;;;;;10.90;4.43;;;15.40;99.90;;;;;;5072074;28;20075;-70
2021/09/16 04:42:02;;;;;;;10.50;4.75;;;15.40;99.90;;;;;;5072425;28;20445;-70
2021/09/16 04:44:28;;;;;;;10.38;4.97;;;15.50;99.90;;;;;;5073759;28;20044;-70
2021/09/16 04:46:53;;;;;;;10.63;4.93;;;15.50;99.90;;;;;;5073709;28;20041;-70
2021/09/16 04:49:19;;;;;;;9.10;5.75;;;15.50;99.90;;;;;;5073408;28;20044;-69
2021/09/16 04:51:45;;;;;;;9.13;5.00;;;15.50;99.90;;;;;;5073337;28;20077;-70
2021/09/16 04:54:11;;;;;;;8.45;4.82;;;15.50;99.90;;;;;;5072251;28;20098;-70
2021/09/16 04:56:36;;;;;;;10.68;5.55;;;15.50;99.90;;;;;;5073240;28;20115;-69
2021/09/16 04:59:02;;;;;;;9.35;5.25;;;15.50;99.90;;;;;;5073173;28;20529;-70
2021/09/16 05:01:28;;;;;;;10.38;5.43;;;15.50;99.90;;;;;;5073527;28;20032;-70
2021/09/16 05:03:53;;;;;;;13.70;6.53;;;15.60;99.90;;;;;;5073142;28;20036;-70
2021/09/16 05:06:19;;;;;;;10.85;6.15;;;15.50;99.90;;;;;;5073284;28;20451;-70
2021/09/16 05:08:44;;;;;;;13.05;6.05;;;15.50;99.90;;;;;;5071545;28;20051;-69
2021/09/16 05:11:12;;;;;;;13.52;6.18;;;15.50;99.90;;;;;;5071768;28;20555;-70
2021/09/16 05:13:38;;;;;;;11.38;5.90;;;15.50;99.90;;;;;;5071863;28;20512;-70
2021/09/16 05:16:04;;;;;;;9.15;6.25;;;15.50;99.90;;;;;;5071508;28;20044;-70
2021/09/16 05:18:29;;;;;;;17.83;6.30;;;15.50;99.90;;;;;;5072673;28;20044;-69
2021/09/16 05:20:55;;;;;;;9.43;5.72;;;15.50;99.90;;;;;;5072538;28;20036;-69
2021/09/16 05:23:20;;;;;;;11.52;6.35;;;15.50;99.90;;;;;;5054900;28;20040;-69
2021/09/16 05:25:46;;;;;;;8.52;5.88;;;15.50;99.90;;;;;;5071911;28;20045;-69
2021/09/16 05:28:12;;;;;;;13.90;6.78;;;15.50;99.90;;;;;;5072887;28;20496;-69
2021/09/16 05:30:37;;;;;;;12.15;6.53;;;15.50;99.90;;;;;;5054885;28;20037;-69
2021/09/16 05:33:07;;;;;;;12.07;6.18;;;15.50;99.90;;;;;;5073042;28;20079;-69
2021/09/16 05:35:34;;;;;;;10.98;6.50;;;15.50;99.90;;;;;;5071935;28;20055;-68
2021/09/16 05:38:00;;;;;;;11.43;7.10;;;15.50;99.90;;;;;;5072774;28;20070;-68
2021/09/16 05:40:25;;;;;;;16.10;7.45;;;15.50;99.90;;;;;;5072640;28;20040;-69
2021/09/16 05:42:52;;;;;;;12.30;6.65;;;15.50;99.90;;;;;;5071828;28;20039;-69
2021/09/16 05:45:21;;;;;;;11.85;6.15;;;15.50;99.90;;;;;;5054914;28;20479;-69
2021/09/16 05:47:46;;;;;;;9.88;7.13;;;15.60;99.90;;;;;;5055366;28;20044;-69
2021/09/16 05:50:12;;;;;;;10.57;6.63;;;15.50;99.90;;;;;;5073017;28;20037;-69
2021/09/16 05:52:38;;;;;;;12.07;6.22;;;15.50;99.90;;;;;;5071546;28;20052;-69
2021/09/16 05:55:05;;;;;;;9.38;6.50;;;15.50;99.90;;;;;;5071438;28;20066;-69
2021/09/16 05:57:31;;;;;;;11.88;6.32;;;15.50;99.90;;;;;;5054610;28;20504;-69
2021/09/16 05:59:56;;;;;;;20.63;7.60;;;15.60;99.90;;;;;;5071287;28;20048;-69
2021/09/16 06:02:22;;;;;;;9.70;6.30;;;15.60;99.90;;;;;;5054684;28;20040;-69
2021/09/16 06:04:48;;;;;;;13.30;6.30;;;15.60;99.90;;;;;;5071804;28;20040;-69
2021/09/16 06:07:13;;;;;;;11.88;6.55;;;15.60;99.90;;;;;;5071591;28;20044;-69
2021/09/16 06:09:39;;;;;;;18.25;6.55;;;15.60;99.90;;;;;;5071127;28;20040;-69
2021/09/16 06:12:07;;;;;;;14.02;6.72;;;15.60;99.90;;;;;;5071216;28;20080;-70
2021/09/16 06:14:33;;;;;;;15.77;6.75;;;15.60;99.90;;;;;;5054532;28;20103;-69
2021/09/16 06:16:59;;;;;;;15.13;7.05;;;15.60;99.90;;;;;;5072609;28;20461;-71
2021/09/16 06:19:25;;;;;;;14.43;6.75;;;15.70;99.90;;;;;;5072284;28;20037;-74
2021/09/16 06:21:50;;;;;;;15.40;6.70;;;15.70;99.90;;;;;;5071131;28;20126;-73
2021/09/16 06:24:16;;;;;;;13.98;6.07;;;15.70;99.90;;;;;;5072674;28;20439;-73
2021/09/16 06:26:42;;;;;;;13.00;6.25;;;15.70;99.90;;;;;;5072215;28;20067;-73
2021/09/16 06:29:07;;;;;;;14.68;5.95;;;15.70;99.90;;;;;;5073527;28;20040;-74
2021/09/16 06:31:33;;;;;;;13.73;6.68;;;15.70;99.90;;;;;;5076328;28;20409;-73
2021/09/16 06:34:01;;;;;;;18.20;7.85;;;15.70;99.90;;;;;;5076030;28;20508;-73
2021/09/16 06:36:27;;;;;;;20.63;7.22;;;15.70;99.90;;;;;;5075976;28;20045;-73
2021/09/16 06:38:52;;;;;;;15.77;6.70;;;15.70;99.90;;;;;;5074287;28;20036;-74
2021/09/16 06:41:18;;;;;;;16.92;6.90;;;15.70;99.90;;;;;;5075797;28;20123;-73
2021/09/16 06:43:43;;;;;;;15.18;6.30;;;15.70;99.90;;;;;;5076033;28;20048;-73
2021/09/16 06:46:09;;;;;;;13.73;5.32;;;15.70;99.90;;;;;;5075591;28;20492;-73
2021/09/16 06:48:35;;;;;;;10.70;5.00;;;15.80;99.90;;;;;;5075697;28;20044;-73
2021/09/16 06:51:00;;;;;;;15.40;6.68;;;15.80;99.90;;;;;;5075682;28;20047;-74
2021/09/16 06:53:26;;;;;;;15.98;6.22;;;15.70;99.90;;;;;;5074886;28;20090;-73
2021/09/16 06:55:51;;;;;;;9.15;5.07;;;15.90;99.90;;;;;;5074397;28;20036;-73
2021/09/16 06:58:17;;;;;;;17.55;5.57;;;15.90;99.90;;;;;;5075477;28;20507;-73
2021/09/16 07:00:43;;;;;;;15.38;5.95;;;15.90;99.90;;;;;;5075291;28;20548;-73
2021/09/16 07:03:08;;;;;;;16.10;5.65;;;15.80;99.90;;;;;;5075561;28;20059;-73
2021/09/16 07:05:34;;;;;;;11.13;4.90;;;15.80;99.90;;;;;;5074467;28;20040;-73
2021/09/16 07:07:59;;;;;;;15.30;5.22;;;15.80;99.90;;;;;;5075969;28;20051;-74
2021/09/16 07:10:25;;;;;;;12.93;4.78;;;15.80;99.90;;;;;;5075018;28;20484;-73
2021/09/16 07:12:50;;;;;;;10.60;4.85;;;15.80;99.90;;;;;;5075131;28;20033;-73
2021/09/16 07:15:17;;;;;;;9.77;4.75;;;15.80;99.90;;;;;;5075585;28;20132;-73
2021/09/16 07:17:42;;;;;;;14.05;5.28;;;15.80;99.90;;;;;;5075308;28;20111;-73
2021/09/16 07:20:08;;;;;;;16.55;4.82;;;15.80;99.90;;;;;;5074904;28;20039;-73
2021/09/16 07:22:34;;;;;;;13.85;4.95;;;15.80;99.90;;;;;;5073719;28;20068;-73
2021/09/16 07:25:00;;;;;;;16.67;5.20;;;15.80;99.90;;;;;;5075050;28;20044;-73
2021/09/16 07:27:25;;;;;;;13.80;5.28;;;15.80;99.90;;;;;;5075140;28;20067;-73
2021/09/16 07:29:51;;;;;;;12.13;5.60;;;15.80;99.90;;;;;;5074857;28;20055;-73
2021/09/16 07:32:17;;;;;;;17.55;5.57;;;15.80;99.90;;;;;;5073946;28;20044;-73
2021/09/16 07:34:42;;;;;;;12.57;5.13;;;15.80;99.90;;;;;;5056905;28;20052;-73
2021/09/16 07:37:08;;;;;;;13.18;5.10;;;15.80;99.90;;;;;;5074684;28;20044;-73
2021/09/16 07:39:34;;;;;;;12.75;5.40;;;15.80;99.90;;;;;;5074245;28;20493;-74
2021/09/16 07:41:59;;;;;;;10.75;5.68;;;15.80;99.90;;;;;;5074840;28;20032;-73
2021/09/16 07:44:25;;;;;;;12.65;5.60;;;15.80;99.90;;;;;;5074588;28;20042;-73
2021/09/16 07:46:51;;;;;;;10.48;5.22;;;15.80;99.90;;;;;;5074924;28;20045;-73
2021/09/16 07:49:16;;;;;;;11.05;5.10;;;15.80;99.90;;;;;;5074360;28;20064;-73
2021/09/16 07:51:42;;;;;;;13.93;5.90;;;15.80;99.90;;;;;;5074386;28;20043;-73
2021/09/16 07:54:11;;;;;;;17.15;5.85;;;15.80;99.90;;;;;;5074350;28;20500;-73
2021/09/16 07:56:37;;;;;;;13.20;5.68;;;15.80;99.90;;;;;;5073115;28;20507;-73
2021/09/16 07:59:03;;;;;;;14.82;5.72;;;15.80;99.90;;;;;;5074049;28;20036;-73
2021/09/16 08:01:28;;;;;;;11.23;6.07;;;15.90;99.90;;;;;;5056234;28;20546;-74
2021/09/16 08:03:54;;;;;;;13.95;6.15;;;15.90;99.90;;;;;;5074482;28;20389;-73
2021/09/16 08:06:20;;;;;;;10.50;5.20;;;15.90;99.90;;;;;;5074322;28;20097;-72
2021/09/16 08:08:45;;;;;;;18.08;6.43;;;15.90;99.90;;;;;;5073741;28;20045;-73
2021/09/16 08:11:11;;;;;;;13.25;6.60;;;15.90;99.90;;;;;;5074000;28;20047;-72
2021/09/16 08:13:36;;;;;;;17.13;5.40;;;15.90;99.90;;;;;;5072889;28;20101;-72
2021/09/16 08:16:02;;;;;;;12.73;5.70;;;16.00;99.90;;;;;;5072657;28;20404;-72
2021/09/16 08:18:28;;;;;;;13.82;5.53;;;16.00;99.90;;;;;;5073765;28;20044;-73
2021/09/16 08:20:53;;;;;;;9.13;4.88;;;16.00;99.90;;;;;;5073641;28;20076;-72
2021/09/16 08:23:21;;;;;;;17.52;5.57;;;16.00;99.90;;;;;;5073748;28;20028;-72
2021/09/16 08:25:47;;;;;;;14.65;5.80;;;16.10;99.90;;;;;;5074012;28;20037;-72
2021/09/16 08:28:13;;;;;;;12.35;5.40;;;16.10;99.90;;;;;;5073952;28;20044;-72
2021/09/16 08:30:40;;;;;;;13.13;5.20;;;16.10;99.90;;;;;;5073477;28;20041;-72
2021/09/16 08:33:05;;;;;;;13.40;6.00;;;16.20;99.90;;;;;;5073613;28;20115;-72
2021/09/16 08:35:32;;;;;;;17.05;5.95;;;16.20;99.90;;;;;;5073841;28;20122;-72
2021/09/16 08:37:58;;;;;;;13.80;4.80;;;16.20;99.90;;;;;;5072684;28;20047;-72
2021/09/16 08:40:24;;;;;;;13.55;5.13;;;16.30;99.90;;;;;;5073296;28;20041;-72
2021/09/16 08:42:50;;;;;;;9.15;4.28;;;16.30;99.90;;;;;;5073878;28;20090;-71
2021/09/16 08:45:18;;;;;;;14.80;4.53;;;16.40;99.90;;;;;;5073577;28;20063;-72
2021/09/16 08:47:51;;;;;;;11.48;4.70;;;16.40;99.90;;;;;;5073555;28;20071;-72
2021/09/16 08:50:19;;;;;;;11.32;4.47;;;16.40;99.90;;;;;;5072999;28;20043;-72
2021/09/16 08:52:46;;;;;;;11.32;4.90;;;16.40;99.90;;;;;;5073100;28;20056;-72
2021/09/16 08:55:13;;;;;;;11.95;4.10;;;16.40;99.90;;;;;;5073423;28;20119;-73
2021/09/16 08:57:42;;;;;;;9.73;4.55;;;16.50;99.90;;;;;;5073404;28;20045;-72
2021/09/16 09:00:14;;;;;;;17.35;4.65;;;16.40;99.90;;;;;;5072918;28;20077;-72
2021/09/16 09:02:42;;;;;;;12.05;4.20;;;16.50;99.90;;;;;;5072629;28;20049;-72
2021/09/16 09:05:09;;;;;;;9.75;4.00;;;16.60;99.90;;;;;;5073188;28;20040;-72
2021/09/16 09:08:02;;;;;;;16.35;5.20;;;16.60;99.90;;;;;;5073274;28;20045;-73
2021/09/16 09:10:42;;;;;;;13.27;3.92;;;16.60;99.90;;;;;;5069135;28;20052;-72
2021/09/16 09:13:17;;;;;;;7.38;2.88;;;16.60;99.90;;;;;;5073735;28;20048;-72
2021/09/16 09:15:45;;;;;;;13.35;3.70;;;16.70;99.90;;;;;;5055349;28;20053;-73
2021/09/16 09:18:16;;;;;;;9.73;3.42;;;16.70;99.90;;;;;;5071682;28;20530;-72
2021/09/16 09:21:07;;;;;;;11.90;3.83;;;16.70;99.90;;;;;;5072769;28;20037;-72
2021/09/16 09:23:43;;;;;;;13.38;3.47;;;16.80;99.90;;;;;;5073254;28;20105;-72
2021/09/16 09:26:26;;;;;;;12.77;3.20;;;16.80;99.90;;;;;;5055174;28;20044;-72
2021/09/16 09:29:11;;;;;;;10.43;2.80;;;16.90;99.90;;;;;;5072638;28;20507;-72
2021/09/16 09:31:57;;;;;;;8.27;2.50;;;16.90;99.90;;;;;;5073273;28;20048;-72
2021/09/16 09:34:29;;;;;;;12.35;3.67;;;17.30;99.90;;;;;;5073192;28;20033;-72
2021/09/16 09:37:12;;;;;;;6.85;2.42;;;17.50;99.90;;;;;;5073159;28;20041;-72
2021/09/16 09:39:39;;;;;;;9.47;3.63;;;17.60;99.90;;;;;;5054745;28;20041;-72
2021/09/16 09:42:17;;;;;;;7.50;3.28;;;17.50;99.90;;;;;;5073004;28;20123;-71
2021/09/16 09:44:43;;;;;;;6.88;2.05;;;17.60;99.90;;;;;;5072939;28;20461;-72
2021/09/16 09:47:12;;;;;;;7.05;2.58;;;17.60;99.90;;;;;;5071747;28;20041;-72
2021/09/16 09:49:39;;;;;;;9.35;2.45;;;17.50;99.90;;;;;;5072499;28;20055;-72
2021/09/16 09:52:06;;;;;;;8.13;2.75;;;17.50;99.90;;;;;;5071488;28;20056;-72
2021/09/16 09:54:39;;;;;;;10.60;2.40;;;17.50;99.90;;;;;;5072696;28;20120;-70
2021/09/16 09:57:17;;;;;;;8.68;2.22;;;17.50;99.90;;;;;;5070100;28;20119;-69
2021/09/16 10:00:01;;;;;;;8.55;2.65;;;17.40;99.90;;;;;;5072174;28;20048;-69
2021/09/16 10:02:39;;;;;;;8.82;2.30;;;17.30;99.90;;;;;;5073067;28;20079;-70
2021/09/16 10:05:28;;;;;;;7.50;2.50;;;17.20;99.90;;;;;;5074443;28;20051;-70
2021/09/16 10:07:59;;;;;;;10.75;2.65;;;17.10;99.90;;;;;;5076428;28;20036;-70
2021/09/16 10:10:32;;;;;;;6.90;2.40;;;17.00;99.90;;;;;;5074892;28;20072;-70
2021/09/16 10:12:58;;;;;;;8.50;2.83;;;16.90;99.90;;;;;;5058452;28;20045;-69
2021/09/16 10:15:25;;;;;;;9.77;2.50;;;16.80;99.90;;;;;;5076434;28;20040;-70
2021/09/16 10:17:53;;;;;;;6.97;1.85;;;16.80;99.90;;;;;;5058656;28;20045;-70
2021/09/16 10:20:20;;;;;;;4.28;1.70;;;16.80;99.90;;;;;;5076129;28;20032;-70
2021/09/16 10:22:52;;;;;;;8.30;2.28;;;16.80;99.90;;;;;;5076305;28;20036;-70
2021/09/16 10:25:23;;;;;;;4.15;2.33;;;16.70;99.90;;;;;;5058886;28;20044;-70
2021/09/16 10:28:06;;;;;;;6.15;2.30;;;16.80;99.90;;;;;;5076698;28;20044;-70
2021/09/16 10:30:38;;;;;;;6.65;2.58;;;16.80;99.90;;;;;;5075770;28;20040;-70
2021/09/16 10:33:14;;;;;;;7.25;3.10;;;16.80;99.90;;;;;;5074809;28;20048;-70
2021/09/16 10:35:44;;;;;;;6.00;2.25;;;16.90;99.90;;;;;;5076400;28;20036;-71
2021/09/16 10:38:35;;;;;;;6.22;3.05;;;16.90;99.90;;;;;;5074579;28;20089;-70
2021/09/16 10:41:29;;;;;;;3.50;1.70;;;17.00;99.90;;;;;;5071410;28;20071;-70
2021/09/16 10:43:58;;;;;;;8.25;2.03;;;17.00;99.90;;;;;;5074754;28;20481;-70
2021/09/16 10:46:38;;;;;;;6.43;1.85;;;17.10;99.90;;;;;;5074565;28;20059;-70
2021/09/16 10:49:22;;;;;;;6.63;2.10;;;17.10;99.90;;;;;;5075393;28;20045;-70
2021/09/16 10:51:49;;;;;;;3.85;2.10;;;17.20;99.90;;;;;;5074332;28;20041;-70
2021/09/16 10:54:24;;;;;;;5.35;2.17;;;17.20;99.90;;;;;;5075917;28;20044;-71
2021/09/16 10:56:59;;;;;;;4.32;1.70;;;17.30;99.90;;;;;;5075482;28;20086;-71
2021/09/16 10:59:48;;;;;;;6.28;2.22;;;17.30;99.90;;;;;;5075148;28;20115;-70
2021/09/16 11:02:19;;;;;;;4.40;2.05;;;17.40;99.90;;;;;;5075487;28;20033;-70
2021/09/16 11:04:54;;;;;;;6.43;2.45;;;17.50;99.90;;;;;;5075704;28;20050;-70
2021/09/16 11:07:32;;;;;;;6.05;1.95;;;17.60;99.90;;;;;;5074955;28;20049;-70
2021/09/16 11:12:46;;;;;;;4.70;2.22;;;17.40;99.90;;;;;;5075521;28;20054;-70
2021/09/16 11:15:14;;;;;;;6.55;2.33;;;17.40;99.90;;;;;;5073597;28;20048;-70
2021/09/16 11:17:42;;;;;;;8.30;2.63;;;17.30;99.90;;;;;;5075163;28;20078;-70
2021/09/16 11:20:11;;;;;;;9.00;2.92;;;17.20;99.90;;;;;;5074720;28;20423;-70
2021/09/16 11:22:37;;;;;;;9.23;2.63;;;17.10;99.90;;;;;;5075309;28;20036;-70
2021/09/16 11:25:04;;;;;;;8.10;2.83;;;17.10;99.90;;;;;;5075475;28;20082;-70
2021/09/16 11:27:36;;;;;;;11.25;3.58;;;17.00;99.90;;;;;;5073778;28;20040;-70
2021/09/16 11:30:04;;;;;;;7.85;3.20;;;17.10;99.90;;;;;;5074850;28;20079;-69
2021/09/16 11:32:37;;;;;;;11.30;3.33;;;17.10;99.90;;;;;;5075101;28;20040;-70
2021/09/16 11:35:07;;;;;;;;;;;17.10;99.90;;;;;;5075557;28;20032;-70
2021/09/16 11:37:38;;;;;;;11.30;3.30;;;17.00;99.90;;;;;;5075236;28;19968;-70
2021/09/16 11:40:08;;;;;;;15.00;4.20;;;17.10;99.90;;;;;;5074776;28;20036;-70
2021/09/16 11:42:35;;;;;;;9.93;3.30;;;17.10;99.90;;;;;;5074747;28;20485;-69
2021/09/16 11:45:04;;;;;;;10.55;2.90;;;17.20;99.90;;;;;;5073723;28;20041;-70
2021/09/16 11:47:34;;;;;;;10.07;2.40;;;17.30;99.90;;;;;;5074823;28;20051;-70
2021/09/16 11:50:00;;;;;;;9.13;2.85;;;17.30;99.90;;;;;;5074384;28;20040;-70
2021/09/16 11:52:25;;;;;;;7.53;2.80;;;17.40;99.90;;;;;;5074798;28;20044;-70
2021/09/16 11:55:21;;;;;;;7.75;2.60;;;17.50;99.90;;;;;;5074387;28;20047;-70
2021/09/16 11:58:01;;;;;;;9.25;2.90;;;17.60;99.90;;;;;;5072809;28;20568;-70
2021/09/16 12:00:43;;;;;;;9.68;4.90;;;17.70;99.90;;;;;;5073027;28;20086;-69
2021/09/16 12:03:11;;;;;;;5.43;2.25;;;17.80;99.90;;;;;;5074258;28;20500;-72
2021/09/16 12:05:41;;;;;;;7.63;2.60;;;17.90;99.90;;;;;;5074976;28;20037;-72
2021/09/16 12:08:09;;;;;;;4.88;2.80;;;18.00;99.90;;;;;;5074822;28;20428;-72
2021/09/16 12:10:58;;;;;;;7.32;2.67;;;18.10;99.90;;;;;;5072777;28;20041;-73
2021/09/16 12:13:30;;;;;;;11.07;2.13;;;18.20;99.90;;;;;;5056778;28;20044;-72
2021/09/16 12:16:04;;;;;;;9.82;3.05;;;18.30;99.90;;;;;;5074253;28;20047;-72
2021/09/16 12:18:30;;;;;;;6.75;1.73;;;18.40;99.90;;;;;;5073780;28;20389;-74
2021/09/16 12:20:55;;;;;;;3.83;1.55;;;18.30;99.90;;;;;;5074143;28;20048;-72
2021/09/16 12:23:22;;;;;;;5.00;1.85;;;18.30;99.90;;;;;;5073233;28;20048;-72
2021/09/16 12:25:57;;;;;;;5.60;1.98;;;18.30;99.90;;;;;;5073660;28;20090;-72
2021/09/16 12:28:24;;;;;;;3.70;2.08;;;18.20;99.90;;;;;;5073515;28;20489;-73
2021/09/16 12:30:50;;;;;;;4.90;1.58;;;18.20;99.90;;;;;;5073590;28;20043;-73
2021/09/16 12:33:34;;;;;;;4.32;1.80;;;18.20;99.90;;;;;;5073891;28;20036;-73
2021/09/16 12:36:07;;;;;;;6.95;1.75;;;18.20;99.90;;;;;;5072400;28;20047;-73
2021/09/16 12:38:38;;;;;;;6.15;1.85;;;18.10;99.90;;;;;;5073664;28;20531;-74
2021/09/16 12:41:20;;;;;;;4.25;1.85;;;18.10;99.90;;;;;;5073504;28;20516;-73
2021/09/16 12:43:45;;;;;;;7.20;3.10;;;18.10;99.90;;;;;;5073952;28;20396;-73
2021/09/16 12:46:20;;;;;;;9.20;2.70;;;18.10;99.90;;;;;;5073621;28;20041;-72
2021/09/16 12:48:45;;;;;;;6.18;1.80;;;18.00;99.90;;;;;;5073348;28;20123;-73
2021/09/16 12:51:14;;;;;;;5.72;1.77;;;18.10;99.90;;;;;;5073606;28;20068;-72